createdAt,value
2023-11-19T00:01:00.447Z,7.67
2023-11-19T00:06:05.605Z,7.74
2023-11-19T00:11:16.873Z,7.71
2023-11-19T00:16:20.292Z,7.67
2023-11-19T00:21:24.797Z,7.68
2023-11-19T00:26:30.695Z,7.63
2023-11-19T00:31:34.435Z,7.54
2023-11-19T00:36:37.869Z,7.56
2023-11-19T00:41:42.964Z,7.53
2023-11-19T00:46:46.396Z,7.54
2023-11-19T00:51:50.354Z,7.54
2023-11-19T00:56:54.986Z,7.50
2023-11-19T01:01:59.065Z,7.45
2023-11-19T01:07:06.300Z,7.47
2023-11-19T01:12:12.857Z,7.44
2023-11-19T01:17:17.577Z,7.46
2023-11-19T01:22:24.417Z,7.44
2023-11-19T01:27:29.446Z,7.42
2023-11-19T01:32:33.558Z,7.47
2023-11-19T01:37:37.135Z,7.45
2023-11-19T01:42:43.150Z,7.49
2023-11-19T01:47:46.523Z,7.47
2023-11-19T01:52:50.284Z,7.50
2023-11-19T01:57:56.865Z,7.52
2023-11-19T02:03:02.073Z,7.52
2023-11-19T02:08:05.947Z,7.52
2023-11-19T02:13:11.428Z,7.53
2023-11-19T02:18:22.932Z,7.51
2023-11-19T02:23:28.528Z,7.49
2023-11-19T02:28:34.154Z,7.52
2023-11-19T02:33:37.709Z,7.54
2023-11-19T02:38:41.076Z,7.53
2023-11-19T02:43:45.746Z,7.56
2023-11-19T02:48:49.008Z,7.62
2023-11-19T02:53:52.214Z,7.61
2023-11-19T02:58:56.889Z,7.61
2023-11-19T03:04:02.916Z,7.61
2023-11-19T03:09:11.534Z,7.63
2023-11-19T03:14:16.171Z,7.62
2023-11-19T03:24:25.807Z,7.70
2023-11-19T03:29:30.765Z,7.71
2023-11-19T03:34:34.625Z,7.74
2023-11-19T03:39:38.405Z,7.82
2023-11-19T03:44:43.018Z,7.84
2023-11-19T03:49:50.412Z,7.90
2023-11-19T03:54:54.372Z,7.92
2023-11-19T03:59:59.641Z,7.97
2023-11-19T04:05:05.775Z,8.05
2023-11-19T04:10:09.948Z,8.08
2023-11-19T04:15:15.649Z,8.11
2023-11-19T04:20:19.135Z,8.17
2023-11-19T04:25:22.666Z,8.22
2023-11-19T04:30:27.399Z,8.27
2023-11-19T04:35:30.676Z,8.30
2023-11-19T04:40:34.997Z,8.36
2023-11-19T04:45:40.875Z,8.40
2023-11-19T04:50:44.108Z,8.47
2023-11-19T04:55:47.494Z,8.49
2023-11-19T05:00:52.170Z,8.53
2023-11-19T05:05:55.865Z,8.58
2023-11-19T05:11:00.891Z,8.63
2023-11-19T05:16:05.967Z,8.64
2023-11-19T05:21:09.671Z,8.66
2023-11-19T05:26:20.016Z,8.68
2023-11-19T05:31:24.833Z,8.76
2023-11-19T05:36:28.887Z,8.87
2023-11-19T05:41:32.484Z,8.90
2023-11-19T05:46:41.760Z,8.98
2023-11-19T05:51:45.052Z,8.99
2023-11-19T05:56:51.108Z,9.00
2023-11-19T06:01:55.889Z,9.02
2023-11-19T06:06:59.171Z,9.07
2023-11-19T06:12:03.455Z,9.13
2023-11-19T06:17:09.759Z,9.18
2023-11-19T06:22:13.408Z,9.19
2023-11-19T06:27:16.837Z,9.25
2023-11-19T06:32:21.436Z,9.33
2023-11-19T06:37:24.856Z,9.32
2023-11-19T06:42:28.152Z,9.37
2023-11-19T06:47:32.814Z,9.33
2023-11-19T06:52:36.160Z,9.24
2023-11-19T06:57:39.563Z,9.15
2023-11-19T07:02:45.803Z,9.11
2023-11-19T07:07:49.297Z,9.15
2023-11-19T07:12:52.579Z,9.28
2023-11-19T07:23:05.790Z,9.39
2023-11-19T07:28:09.085Z,9.45
2023-11-19T07:33:14.936Z,9.58
2023-11-19T07:38:18.213Z,9.72
2023-11-19T07:43:21.564Z,9.88
2023-11-19T07:48:26.448Z,9.99
2023-11-19T07:53:30.286Z,10.09
2023-11-19T07:58:33.634Z,10.24
2023-11-19T08:03:38.513Z,10.35
2023-11-19T08:08:44.615Z,10.44
2023-11-19T08:13:48.545Z,10.54
2023-11-19T08:18:53.382Z,10.61
2023-11-19T08:23:56.890Z,10.73
2023-11-19T08:29:00.707Z,10.77
2023-11-19T08:34:05.555Z,10.90
2023-11-19T08:39:09.958Z,10.99
2023-11-19T08:44:13.999Z,11.01
2023-11-19T08:49:19.198Z,11.17
2023-11-19T08:54:24.164Z,11.37
2023-11-19T08:59:27.579Z,11.52
2023-11-19T09:04:36.519Z,11.74
2023-11-19T09:09:39.843Z,11.88
2023-11-19T09:14:43.685Z,12.05
2023-11-19T09:19:51.152Z,12.09
2023-11-19T09:24:54.408Z,12.12
2023-11-19T09:29:59.747Z,12.26
2023-11-19T09:35:05.641Z,12.38
2023-11-19T09:40:10.590Z,12.41
2023-11-19T09:45:19.372Z,12.41
2023-11-19T09:50:24.170Z,12.48
2023-11-19T09:55:28.249Z,12.53
2023-11-19T10:00:33.100Z,12.57
2023-11-19T10:05:39.426Z,12.65
2023-11-19T10:10:42.710Z,12.68
2023-11-19T10:15:46.570Z,12.69
2023-11-19T10:20:51.761Z,12.70
2023-11-19T10:25:56.123Z,12.73
2023-11-19T10:30:59.329Z,12.82
2023-11-19T10:36:05.321Z,12.87
2023-11-19T10:41:11.893Z,12.93
2023-11-19T10:46:22.200Z,12.98
2023-11-19T10:51:27.069Z,13.13
2023-11-19T10:56:33.296Z,13.45
2023-11-19T11:01:42.924Z,13.75
2023-11-19T11:06:50.599Z,14.02
2023-11-19T11:11:54.817Z,14.23
2023-11-19T11:17:00.535Z,14.48
2023-11-19T11:22:07.566Z,14.50
2023-11-19T11:27:38.651Z,14.50
2023-11-19T11:32:47.780Z,14.72
2023-11-19T11:37:58.345Z,14.82
2023-11-19T11:43:01.767Z,14.85
2023-11-19T11:48:13.506Z,14.86
2023-11-19T11:53:24.209Z,14.82
2023-11-19T11:58:32.275Z,14.69
2023-11-19T12:03:36.761Z,14.49
2023-11-19T12:13:56.800Z,14.23
2023-11-19T12:19:06.860Z,14.19
2023-11-19T12:24:12.697Z,14.17
2023-11-19T12:29:16.625Z,14.32
2023-11-19T12:34:25.943Z,14.49
2023-11-19T12:39:33.630Z,14.66
2023-11-19T12:44:36.909Z,14.72
2023-11-19T12:49:40.311Z,14.75
2023-11-19T12:54:45.119Z,14.89
2023-11-19T12:59:58.114Z,14.94
2023-11-19T13:05:02.291Z,14.97
2023-11-19T13:10:11.397Z,14.88
2023-11-19T13:15:26.618Z,14.93
2023-11-19T13:20:30.336Z,14.95
2023-11-19T13:25:35.485Z,14.94
2023-11-19T13:30:38.793Z,14.77
2023-11-19T13:35:43.388Z,14.64
2023-11-19T13:40:47.968Z,14.50
2023-11-19T13:45:52.071Z,14.41
2023-11-19T13:50:55.668Z,14.28
2023-11-19T13:56:00.748Z,14.15
2023-11-19T14:01:04.268Z,14.00
2023-11-19T14:06:09.688Z,13.92
2023-11-19T14:11:14.620Z,13.86
2023-11-19T14:16:18.030Z,13.82
2023-11-19T14:21:21.445Z,13.81
2023-11-19T14:26:26.717Z,13.83
2023-11-19T14:31:30.793Z,13.79
2023-11-19T14:36:34.583Z,13.77
2023-11-19T14:41:40.037Z,13.79
2023-11-19T14:46:43.367Z,13.81
2023-11-19T14:51:49.109Z,13.81
2023-11-19T14:56:54.329Z,13.81
2023-11-19T15:01:58.507Z,13.83
2023-11-19T15:07:02.116Z,13.82
2023-11-19T15:12:08.350Z,13.76
2023-11-19T15:17:12.320Z,13.75
2023-11-19T15:22:15.634Z,13.70
2023-11-19T15:27:20.275Z,13.70
2023-11-19T15:32:23.643Z,13.56
2023-11-19T15:37:26.910Z,13.47
2023-11-19T15:42:33.600Z,13.45
2023-11-19T15:47:38.142Z,13.47
2023-11-19T15:52:41.670Z,13.51
2023-11-19T15:57:47.029Z,13.48
2023-11-19T16:02:50.967Z,13.45
2023-11-19T16:07:54.728Z,13.44
2023-11-19T16:13:00.088Z,13.40
2023-11-19T16:18:03.478Z,13.24
2023-11-19T16:23:06.801Z,13.15
2023-11-19T16:28:11.839Z,13.10
2023-11-19T16:33:21.319Z,13.06
2023-11-19T16:38:32.689Z,13.04
2023-11-19T16:43:37.414Z,12.96
2023-11-19T16:48:40.902Z,12.94
2023-11-19T16:53:48.570Z,12.98
2023-11-19T16:58:53.578Z,12.97
2023-11-19T17:03:58.999Z,12.97
2023-11-19T17:09:04.996Z,12.96
2023-11-19T17:14:10.367Z,12.96
2023-11-19T17:19:15.170Z,12.95
2023-11-19T17:24:18.976Z,12.88
2023-11-19T17:29:24.793Z,12.79
2023-11-19T17:34:28.117Z,12.66
2023-11-19T17:39:31.851Z,12.56
2023-11-19T17:44:42.858Z,12.57
2023-11-19T17:49:46.512Z,12.66
2023-11-19T17:54:49.864Z,12.69
2023-11-19T17:59:55.316Z,12.72
2023-11-19T18:04:58.905Z,12.70
2023-11-19T18:10:05.162Z,12.68
2023-11-19T18:15:16.378Z,12.67
2023-11-19T18:20:20.176Z,12.65
2023-11-19T18:25:30.371Z,12.68
2023-11-19T18:30:38.634Z,12.66
2023-11-19T18:35:42.160Z,12.64
2023-11-19T18:40:45.916Z,12.64
2023-11-19T18:45:54.275Z,12.66
2023-11-19T18:50:58.318Z,12.62
2023-11-19T18:56:02.101Z,12.63
2023-11-19T19:01:10.059Z,12.64
2023-11-19T19:06:15.788Z,12.64
2023-11-19T19:11:21.202Z,12.64
2023-11-19T19:16:26.081Z,12.65
2023-11-19T19:21:32.787Z,12.66
2023-11-19T19:26:37.195Z,12.65
2023-11-19T19:31:42.317Z,12.68
2023-11-19T19:36:46.493Z,12.67
2023-11-19T19:41:53.423Z,12.65
2023-11-19T19:46:58.484Z,12.64
2023-11-19T19:52:01.999Z,12.67
2023-11-19T19:57:07.102Z,12.65
2023-11-19T20:02:12.263Z,12.69
2023-11-19T20:07:16.507Z,12.70
2023-11-19T20:12:20.688Z,12.71
2023-11-19T20:17:26.008Z,12.69
2023-11-19T20:22:31.179Z,12.69
2023-11-19T20:27:34.710Z,12.65
2023-11-19T20:32:39.653Z,12.59
2023-11-19T20:37:43.098Z,12.56
2023-11-19T20:42:46.586Z,12.56
2023-11-19T20:47:51.729Z,12.57
2023-11-19T20:52:57.739Z,12.62
2023-11-19T20:58:01.840Z,12.64
2023-11-19T21:03:09.379Z,12.69
2023-11-19T21:08:14.772Z,12.71
2023-11-19T21:13:19.701Z,12.72
2023-11-19T21:18:24.535Z,12.71
2023-11-19T21:23:28.387Z,12.76
2023-11-19T21:28:34.276Z,12.78
2023-11-19T21:33:39.016Z,12.82
2023-11-19T21:38:45.378Z,12.84
2023-11-19T21:48:57.275Z,12.73
2023-11-19T21:54:03.745Z,12.71
2023-11-19T21:59:07.464Z,12.67
2023-11-19T22:04:12.596Z,12.66
2023-11-19T22:09:16.894Z,12.61
2023-11-19T22:14:22.752Z,12.60
2023-11-19T22:19:27.739Z,12.59
2023-11-19T22:24:32.267Z,12.59
2023-11-19T22:29:37.018Z,12.57
2023-11-19T22:34:41.853Z,12.58
2023-11-19T22:39:45.810Z,12.54
2023-11-19T22:44:49.063Z,12.52
2023-11-19T22:49:53.745Z,12.49
2023-11-19T22:54:57.321Z,12.46
2023-11-19T23:00:00.630Z,12.47
2023-11-19T23:05:08.609Z,12.44
2023-11-19T23:10:13.084Z,12.40
2023-11-19T23:15:16.684Z,12.36
2023-11-19T23:20:22.363Z,12.36
2023-11-19T23:25:25.784Z,12.34
2023-11-19T23:30:29.011Z,12.32
2023-11-19T23:35:35.580Z,12.24
2023-11-19T23:40:38.706Z,12.22
2023-11-19T23:45:42.070Z,12.22
2023-11-19T23:55:52.867Z,12.14
